createdAt,value
2023-04-28T00:02:03.813Z,8.77
2023-04-28T00:04:31.736Z,8.10
2023-04-28T00:06:59.251Z,9.10
2023-04-28T00:09:26.673Z,9.77
2023-04-28T00:11:54.074Z,7.97
2023-04-28T00:14:21.503Z,9.03
2023-04-28T00:16:49.322Z,8.77
2023-04-28T00:19:16.825Z,7.90
2023-04-28T00:21:44.186Z,8.07
2023-04-28T00:24:11.583Z,7.87
2023-04-28T00:26:38.963Z,8.97
2023-04-28T00:29:06.472Z,8.37
2023-04-28T00:31:35.482Z,9.57
2023-04-28T00:34:03.018Z,8.30
2023-04-28T00:36:32.408Z,7.63
2023-04-28T00:38:59.924Z,8.20
2023-04-28T00:41:27.293Z,7.57
2023-04-28T00:43:54.736Z,8.07
2023-04-28T00:46:25.142Z,8.37
2023-04-28T00:48:53.898Z,9.40
2023-04-28T00:51:21.636Z,7.93
2023-04-28T00:53:49.298Z,8.13
2023-04-28T00:56:17.339Z,8.57
2023-04-28T00:58:44.795Z,8.70
2023-04-28T01:01:12.389Z,8.43
2023-04-28T01:03:41.439Z,8.33
2023-04-28T01:06:10.763Z,8.10
2023-04-28T01:08:39.733Z,8.97
2023-04-28T01:11:16.505Z,8.00
2023-04-28T01:14:08.576Z,8.83
2023-04-28T01:16:39.389Z,9.17
2023-04-28T01:19:18.319Z,8.27
2023-04-28T01:21:46.320Z,9.30
2023-04-28T01:24:24.055Z,8.00
2023-04-28T01:26:51.634Z,7.70
2023-04-28T01:29:19.184Z,8.57
2023-04-28T01:31:46.657Z,8.13
2023-04-28T01:34:14.490Z,7.90
2023-04-28T01:36:42.921Z,8.97
2023-04-28T01:39:11.370Z,8.57
2023-04-28T01:41:41.008Z,9.27
2023-04-28T01:44:08.614Z,8.83
2023-04-28T01:46:36.820Z,9.43
2023-04-28T01:49:04.879Z,9.53
2023-04-28T01:51:32.866Z,10.63
2023-04-28T01:54:01.872Z,9.43
2023-04-28T01:56:30.442Z,9.17
2023-04-28T01:58:59.141Z,8.30
2023-04-28T02:01:26.834Z,8.60
2023-04-28T02:03:55.846Z,8.53
2023-04-28T02:06:24.343Z,8.80
2023-04-28T02:08:51.902Z,9.80
2023-04-28T02:11:19.420Z,9.60
2023-04-28T02:13:47.202Z,9.10
2023-04-28T02:16:14.740Z,9.17
2023-04-28T02:18:43.261Z,9.97
2023-04-28T02:21:12.097Z,8.47
2023-04-28T02:23:40.228Z,8.70
2023-04-28T02:26:07.759Z,9.03
2023-04-28T02:28:35.215Z,8.70
2023-04-28T02:31:07.098Z,9.20
2023-04-28T02:33:34.817Z,8.35
2023-04-28T02:36:03.551Z,9.57
2023-04-28T02:38:31.343Z,9.63
2023-04-28T02:41:06.629Z,8.97
2023-04-28T02:43:34.749Z,9.73
2023-04-28T02:46:05.373Z,9.07
2023-04-28T02:48:35.633Z,9.93
2023-04-28T02:51:03.686Z,9.57
2023-04-28T02:53:32.781Z,9.07
2023-04-28T02:56:02.186Z,9.13
2023-04-28T02:58:30.542Z,9.57
2023-04-28T03:00:58.054Z,9.53
2023-04-28T03:03:26.009Z,8.43
2023-04-28T03:05:53.646Z,8.50
2023-04-28T03:08:21.599Z,8.70
2023-04-28T03:10:49.150Z,8.97
2023-04-28T03:13:16.532Z,8.03
2023-04-28T03:15:44.543Z,8.03
2023-04-28T03:18:12.660Z,8.13
2023-04-28T03:20:40.287Z,8.97
2023-04-28T03:23:07.584Z,8.77
2023-04-28T03:25:36.245Z,7.83
2023-04-28T03:28:04.156Z,8.20
2023-04-28T03:30:31.713Z,7.33
2023-04-28T03:32:59.409Z,7.97
2023-04-28T03:35:26.939Z,8.00
2023-04-28T03:37:55.062Z,8.27
2023-04-28T03:40:22.927Z,7.83
2023-04-28T03:43:13.252Z,7.60
2023-04-28T03:45:48.041Z,8.00
2023-04-28T03:48:15.743Z,8.17
2023-04-28T03:50:45.478Z,7.90
2023-04-28T03:53:13.137Z,8.47
2023-04-28T03:55:40.886Z,8.77
2023-04-28T03:58:08.259Z,8.10
2023-04-28T04:00:35.871Z,9.07
2023-04-28T04:03:03.902Z,8.10
2023-04-28T04:05:31.710Z,8.63
2023-04-28T04:07:59.225Z,8.20
2023-04-28T04:10:26.870Z,8.97
2023-04-28T04:12:54.669Z,8.90
2023-04-28T04:15:22.236Z,8.67
2023-04-28T04:17:50.552Z,9.03
2023-04-28T04:20:18.154Z,8.10
2023-04-28T04:22:46.960Z,9.70
2023-04-28T04:25:15.582Z,8.50
2023-04-28T04:27:47.278Z,8.77
2023-04-28T04:30:15.224Z,8.70
2023-04-28T04:32:43.293Z,7.93
2023-04-28T04:35:11.130Z,8.27
2023-04-28T04:37:38.712Z,8.30
2023-04-28T04:40:07.786Z,7.97
2023-04-28T04:42:41.560Z,8.07
2023-04-28T04:45:17.954Z,7.23
2023-04-28T04:47:45.516Z,7.17
2023-04-28T04:50:13.992Z,7.53
2023-04-28T04:52:41.600Z,7.67
2023-04-28T04:55:11.438Z,6.40
2023-04-28T05:00:23.258Z,7.97
2023-04-28T05:02:51.332Z,8.57
2023-04-28T05:05:21.722Z,7.82
2023-04-28T05:08:02.866Z,7.13
2023-04-28T05:10:30.626Z,7.90
2023-04-28T05:13:02.651Z,8.10
2023-04-28T05:15:30.676Z,8.35
2023-04-28T05:18:30.467Z,7.82
2023-04-28T05:20:58.245Z,8.13
2023-04-28T05:23:25.892Z,7.38
2023-04-28T05:25:53.640Z,7.65
2023-04-28T05:28:22.272Z,7.38
2023-04-28T05:30:53.320Z,6.60
2023-04-28T05:33:20.918Z,7.22
2023-04-28T05:35:49.491Z,7.13
2023-04-28T05:38:17.181Z,7.15
2023-04-28T05:40:45.790Z,7.32
2023-04-28T05:43:14.781Z,7.85
2023-04-28T05:45:46.287Z,7.88
2023-04-28T05:48:13.873Z,7.50
2023-04-28T05:50:42.099Z,7.80
2023-04-28T05:53:11.375Z,7.63
2023-04-28T05:55:39.174Z,7.80
2023-04-28T05:58:09.552Z,7.72
2023-04-28T06:00:38.156Z,7.50
2023-04-28T06:03:11.605Z,7.80
2023-04-28T06:05:39.903Z,7.07
2023-04-28T06:08:08.808Z,7.72
2023-04-28T06:10:38.226Z,6.72
2023-04-28T06:13:06.668Z,7.40
2023-04-28T06:15:34.413Z,7.22
2023-04-28T06:18:02.842Z,7.35
2023-04-28T06:20:30.625Z,6.82
2023-04-28T06:22:58.283Z,6.60
2023-04-28T06:25:26.583Z,6.72
2023-04-28T06:27:55.171Z,6.60
2023-04-28T06:30:24.216Z,6.50
2023-04-28T06:32:52.430Z,6.47
2023-04-28T06:35:20.266Z,6.53
2023-04-28T06:37:50.815Z,6.40
2023-04-28T06:40:18.566Z,6.15
2023-04-28T06:42:53.733Z,6.20
2023-04-28T06:45:26.609Z,5.97
2023-04-28T06:47:57.936Z,5.40
2023-04-28T06:50:25.590Z,5.13
2023-04-28T06:52:53.251Z,4.65
2023-04-28T06:55:24.415Z,4.53
2023-04-28T06:57:54.762Z,5.43
2023-04-28T07:00:23.534Z,4.45
2023-04-28T07:02:53.808Z,4.88
2023-04-28T07:05:23.743Z,4.70
2023-04-28T07:07:56.091Z,4.20
2023-04-28T07:10:23.652Z,4.10
2023-04-28T07:12:53.811Z,4.35
2023-04-28T07:15:21.608Z,4.55
2023-04-28T07:17:49.714Z,4.75
2023-04-28T07:20:17.384Z,4.55
2023-04-28T07:22:45.155Z,4.53
2023-04-28T07:25:12.948Z,4.80
2023-04-28T07:27:43.039Z,4.28
2023-04-28T07:30:25.698Z,4.95
2023-04-28T07:32:55.655Z,4.22
2023-04-28T07:35:23.873Z,4.70
2023-04-28T07:37:51.715Z,4.40
2023-04-28T07:40:24.314Z,4.50
2023-04-28T07:42:52.231Z,3.95
2023-04-28T07:45:20.171Z,4.40
2023-04-28T07:47:47.861Z,4.03
2023-04-28T07:50:18.176Z,3.88
2023-04-28T07:52:48.700Z,4.55
2023-04-28T07:55:18.753Z,4.80
2023-04-28T07:57:49.651Z,4.50
2023-04-28T08:00:18.571Z,4.50
2023-04-28T08:02:48.777Z,4.05
2023-04-28T08:05:19.051Z,3.90
2023-04-28T08:07:46.896Z,3.95
2023-04-28T08:10:14.706Z,4.03
2023-04-28T08:12:42.456Z,3.72
2023-04-28T08:15:10.726Z,3.92
2023-04-28T08:17:38.755Z,4.28
2023-04-28T08:20:07.838Z,3.85
2023-04-28T08:22:35.723Z,3.50
2023-04-28T08:25:03.546Z,3.85
2023-04-28T08:27:31.270Z,3.25
2023-04-28T08:29:58.852Z,3.83
2023-04-28T08:32:26.674Z,3.83
2023-04-28T08:34:54.225Z,4.35
2023-04-28T08:37:21.980Z,3.85
2023-04-28T08:39:49.738Z,3.50
2023-04-28T08:42:20.530Z,3.35
2023-04-28T08:44:49.559Z,4.15
2023-04-28T08:47:19.627Z,3.50
2023-04-28T08:49:49.312Z,3.83
2023-04-28T08:52:18.527Z,3.42
2023-04-28T08:54:48.648Z,3.53
2023-04-28T08:57:16.733Z,3.50
2023-04-28T08:59:44.688Z,3.33
2023-04-28T09:02:12.599Z,3.47
2023-04-28T09:04:40.659Z,3.53
2023-04-28T09:07:12.974Z,3.70
2023-04-28T09:12:11.451Z,3.25
2023-04-28T09:14:39.665Z,4.20
2023-04-28T09:17:13.216Z,3.78
2023-04-28T09:19:44.385Z,3.47
2023-04-28T09:22:25.484Z,3.65
2023-04-28T09:24:56.208Z,3.30
2023-04-28T09:27:28.517Z,3.30
2023-04-28T09:29:56.434Z,3.72
2023-04-28T09:32:26.066Z,3.40
2023-04-28T09:34:57.272Z,3.30
2023-04-28T09:37:27.446Z,3.53
2023-04-28T09:39:55.638Z,3.08
2023-04-28T09:42:38.309Z,3.00
2023-04-28T09:45:07.996Z,3.13
2023-04-28T09:47:39.297Z,3.58
2023-04-28T09:50:15.331Z,3.38
2023-04-28T09:52:45.960Z,2.83
2023-04-28T09:55:13.503Z,3.00
2023-04-28T09:57:41.264Z,2.70
2023-04-28T10:00:09.738Z,2.97
2023-04-28T10:05:10.962Z,3.42
2023-04-28T10:07:39.547Z,2.83
2023-04-28T10:10:08.298Z,2.17
2023-04-28T10:12:38.802Z,2.45
2023-04-28T10:15:09.785Z,2.85
2023-04-28T10:17:38.774Z,2.78
2023-04-28T10:20:08.873Z,3.13
2023-04-28T10:23:13.604Z,1.95
2023-04-28T10:25:43.606Z,2.03
2023-04-28T10:28:11.361Z,2.90
2023-04-28T10:30:38.982Z,3.22
2023-04-28T10:33:27.063Z,9.43
2023-04-28T10:35:55.012Z,2.85
2023-04-28T10:38:22.673Z,2.78
2023-04-28T10:40:53.013Z,2.63
2023-04-28T10:43:37.861Z,3.20
2023-04-28T10:46:07.446Z,3.60
2023-04-28T10:48:38.066Z,2.83
2023-04-28T10:51:28.640Z,3.28
2023-04-28T10:54:08.485Z,2.97
2023-04-28T10:56:36.340Z,3.35
2023-04-28T10:59:30.210Z,3.25
2023-04-28T11:02:37.244Z,3.60
2023-04-28T11:05:12.650Z,3.20
2023-04-28T11:07:40.316Z,3.40
2023-04-28T11:10:08.832Z,4.50
2023-04-28T11:12:36.360Z,4.25
2023-04-28T11:15:13.324Z,4.03
2023-04-28T11:17:42.201Z,4.90
2023-04-28T11:20:13.847Z,4.97
2023-04-28T11:22:41.894Z,3.30
2023-04-28T11:25:10.025Z,3.85
2023-04-28T11:27:37.849Z,3.13
2023-04-28T11:30:21.092Z,3.80
2023-04-28T11:32:50.732Z,3.85
2023-04-28T11:35:18.316Z,4.03
2023-04-28T11:37:45.849Z,4.85
2023-04-28T11:40:14.482Z,4.50
2023-04-28T11:42:49.226Z,3.35
2023-04-28T11:45:17.308Z,3.67
2023-04-28T11:47:44.770Z,3.58
2023-04-28T11:50:14.319Z,4.97
2023-04-28T11:52:53.608Z,4.45
2023-04-28T11:55:21.427Z,4.38
2023-04-28T11:57:48.925Z,3.67
2023-04-28T12:00:22.279Z,3.97
2023-04-28T12:02:50.996Z,3.97
2023-04-28T12:05:21.581Z,4.15
2023-04-28T12:07:49.562Z,4.10
2023-04-28T12:10:20.134Z,3.30
2023-04-28T12:12:52.391Z,3.83
2023-04-28T12:15:22.167Z,3.90
2023-04-28T12:17:51.302Z,4.05
2023-04-28T12:20:37.431Z,4.00
2023-04-28T12:23:06.229Z,3.40
2023-04-28T12:25:35.436Z,4.25
2023-04-28T12:28:05.668Z,4.43
2023-04-28T12:30:44.214Z,4.10
2023-04-28T12:33:29.186Z,4.18
2023-04-28T12:35:58.097Z,3.42
2023-04-28T12:38:26.469Z,3.80
2023-04-28T12:40:54.505Z,4.32
2023-04-28T12:43:24.116Z,3.78
2023-04-28T12:45:56.407Z,3.70
2023-04-28T12:48:25.234Z,3.22
2023-04-28T12:50:53.067Z,3.92
2023-04-28T12:53:20.854Z,3.85
2023-04-28T12:55:48.487Z,3.50
2023-04-28T12:58:16.126Z,3.92
2023-04-28T13:00:44.825Z,4.60
2023-04-28T13:03:12.572Z,3.90
2023-04-28T13:05:40.212Z,3.95
2023-04-28T13:08:07.661Z,3.58
2023-04-28T13:10:35.233Z,4.13
2023-04-28T13:13:04.853Z,4.55
2023-04-28T13:15:32.420Z,4.82
2023-04-28T13:18:00.256Z,5.20
2023-04-28T13:20:28.003Z,5.38
2023-04-28T13:22:55.610Z,6.20
2023-04-28T13:25:23.539Z,6.32
2023-04-28T13:27:52.012Z,7.57
2023-04-28T13:30:19.717Z,6.45
2023-04-28T13:32:47.307Z,6.75
2023-04-28T13:35:21.295Z,7.47
2023-04-28T13:37:49.048Z,7.05
2023-04-28T13:40:19.303Z,7.57
2023-04-28T13:42:49.037Z,7.53
2023-04-28T13:45:17.824Z,8.57
2023-04-28T13:47:45.956Z,8.52
2023-04-28T13:50:13.610Z,8.30
2023-04-28T13:52:41.702Z,7.88
2023-04-28T13:55:09.941Z,7.78
2023-04-28T13:57:37.692Z,7.93
2023-04-28T14:00:06.091Z,8.73
2023-04-28T14:02:39.928Z,7.07
2023-04-28T14:05:10.243Z,7.28
2023-04-28T14:07:38.435Z,8.00
2023-04-28T14:10:08.501Z,8.30
2023-04-28T14:12:36.963Z,7.72
2023-04-28T14:15:08.165Z,7.85
2023-04-28T14:17:36.674Z,7.88
2023-04-28T14:20:07.710Z,8.10
2023-04-28T14:22:37.527Z,8.00
2023-04-28T14:25:05.844Z,8.48
2023-04-28T14:27:33.588Z,8.95
2023-04-28T14:30:02.087Z,7.57
2023-04-28T14:32:32.385Z,7.72
2023-04-28T14:35:03.101Z,8.05
2023-04-28T14:37:31.081Z,7.55
2023-04-28T14:40:01.881Z,7.13
2023-04-28T14:42:31.515Z,7.50
2023-04-28T14:45:12.456Z,8.18
2023-04-28T14:47:43.559Z,7.67
2023-04-28T14:50:14.108Z,7.97
2023-04-28T14:52:47.096Z,8.60
2023-04-28T14:55:17.283Z,7.97
2023-04-28T14:57:47.231Z,8.05
2023-04-28T15:00:16.026Z,8.60
2023-04-28T15:02:43.834Z,6.65
2023-04-28T15:05:11.777Z,7.60
2023-04-28T15:07:39.805Z,7.80
2023-04-28T15:10:10.377Z,7.35
2023-04-28T15:12:41.278Z,7.30
2023-04-28T15:15:09.737Z,7.25
2023-04-28T15:17:37.704Z,7.65
2023-04-28T15:20:06.073Z,6.15
2023-04-28T15:22:36.053Z,7.47
2023-04-28T15:25:09.169Z,6.95
2023-04-28T15:27:39.359Z,6.78
2023-04-28T15:30:08.814Z,8.52
2023-04-28T15:32:36.706Z,6.40
2023-04-28T15:35:06.756Z,7.20
2023-04-28T15:37:45.046Z,5.72
2023-04-28T15:40:15.293Z,6.43
2023-04-28T15:42:48.806Z,5.65
2023-04-28T15:45:17.104Z,6.03
2023-04-28T15:47:48.570Z,6.85
2023-04-28T15:50:18.760Z,5.90
2023-04-28T15:52:47.707Z,6.00
2023-04-28T15:55:16.791Z,5.47
2023-04-28T15:57:44.806Z,5.22
2023-04-28T16:00:16.205Z,5.47
2023-04-28T16:02:45.074Z,5.72
2023-04-28T16:05:13.112Z,5.43
2023-04-28T16:07:41.230Z,5.82
2023-04-28T16:10:12.029Z,5.78
2023-04-28T16:12:40.276Z,5.78
2023-04-28T16:15:09.989Z,5.07
2023-04-28T16:20:13.899Z,5.43
2023-04-28T16:22:42.071Z,5.82
2023-04-28T16:25:10.873Z,5.22
2023-04-28T16:27:40.823Z,5.32
2023-04-28T16:30:10.210Z,6.43
2023-04-28T16:32:38.847Z,4.85
2023-04-28T16:35:15.313Z,4.78
2023-04-28T16:37:43.839Z,5.55
2023-04-28T16:40:15.740Z,5.60
2023-04-28T16:45:13.327Z,5.07
2023-04-28T16:47:44.766Z,4.47
2023-04-28T16:50:15.045Z,4.55
2023-04-28T16:52:42.847Z,4.50
2023-04-28T16:55:11.160Z,4.55
2023-04-28T16:57:38.678Z,4.60
2023-04-28T17:00:07.512Z,4.30
2023-04-28T17:02:35.541Z,5.55
2023-04-28T17:05:03.493Z,5.30
2023-04-28T17:07:33.637Z,5.13
2023-04-28T17:10:01.277Z,6.10
2023-04-28T17:12:28.867Z,5.85
2023-04-28T17:14:56.530Z,6.30
2023-04-28T17:17:24.284Z,5.72
2023-04-28T17:19:54.380Z,5.63
2023-04-28T17:22:22.229Z,6.70
2023-04-28T17:24:52.319Z,5.88
2023-04-28T17:27:19.866Z,5.50
2023-04-28T17:29:47.652Z,5.45
2023-04-28T17:32:15.340Z,6.53
2023-04-28T17:34:42.999Z,6.20
2023-04-28T17:37:12.734Z,5.65
2023-04-28T17:39:40.537Z,5.55
2023-04-28T17:42:08.033Z,5.70
2023-04-28T17:44:36.253Z,5.05
2023-04-28T17:47:03.895Z,5.38
2023-04-28T17:49:31.475Z,5.07
2023-04-28T17:51:59.067Z,5.15
2023-04-28T17:54:28.987Z,5.05
2023-04-28T17:56:57.228Z,4.68
2023-04-28T17:59:24.855Z,4.57
2023-04-28T18:01:56.455Z,4.10
2023-04-28T18:04:27.345Z,3.83
2023-04-28T18:06:54.968Z,4.25
2023-04-28T18:09:22.630Z,3.85
2023-04-28T18:11:50.181Z,3.63
2023-04-28T18:14:18.539Z,4.80
2023-04-28T18:16:46.751Z,4.20
2023-04-28T18:19:14.724Z,4.22
2023-04-28T18:21:42.239Z,3.47
2023-04-28T18:24:09.768Z,3.88
2023-04-28T18:26:37.360Z,3.88
2023-04-28T18:29:04.942Z,4.35
2023-04-28T18:31:32.615Z,3.55
2023-04-28T18:34:00.873Z,4.28
2023-04-28T18:36:30.578Z,3.83
2023-04-28T18:38:58.304Z,3.97
2023-04-28T18:41:26.131Z,4.05
2023-04-28T18:43:55.024Z,3.80
2023-04-28T18:46:22.758Z,4.57
2023-04-28T18:48:50.926Z,4.55
2023-04-28T18:51:18.884Z,4.68
2023-04-28T18:53:46.473Z,4.80
2023-04-28T18:56:14.388Z,4.50
2023-04-28T18:58:41.978Z,4.72
2023-04-28T19:01:18.668Z,4.97
2023-04-28T19:03:46.677Z,5.25
2023-04-28T19:06:16.741Z,5.63
2023-04-28T19:08:46.698Z,5.10
2023-04-28T19:11:14.378Z,5.20
2023-04-28T19:13:44.769Z,4.97
2023-04-28T19:16:14.935Z,4.90
2023-04-28T19:18:43.215Z,5.88
2023-04-28T19:21:16.423Z,5.63
2023-04-28T19:23:43.962Z,6.60
2023-04-28T19:26:11.598Z,5.82
2023-04-28T19:28:39.300Z,6.57
2023-04-28T19:31:10.497Z,6.60
2023-04-28T19:33:38.288Z,6.78
2023-04-28T19:36:09.962Z,7.10
2023-04-28T19:38:39.597Z,6.78
2023-04-28T19:41:09.294Z,7.72
2023-04-28T19:43:38.056Z,7.55
2023-04-28T19:46:05.752Z,7.43
2023-04-28T19:48:33.459Z,7.57
2023-04-28T19:51:01.064Z,7.05
2023-04-28T19:53:30.984Z,8.25
2023-04-28T19:56:02.257Z,7.30
2023-04-28T19:58:29.929Z,7.93
2023-04-28T20:00:59.939Z,7.78
2023-04-28T20:03:30.210Z,8.68
2023-04-28T20:05:58.024Z,7.32
2023-04-28T20:08:27.913Z,8.20
2023-04-28T20:10:58.368Z,9.07
2023-04-28T20:13:27.940Z,8.85
2023-04-28T20:15:56.118Z,8.45
2023-04-28T20:18:23.762Z,9.10
2023-04-28T20:20:53.443Z,8.20
2023-04-28T20:23:20.927Z,8.90
2023-04-28T20:25:48.666Z,8.55
2023-04-28T20:28:16.306Z,8.27
2023-04-28T20:30:43.899Z,8.15
2023-04-28T20:33:11.458Z,8.90
2023-04-28T20:35:38.958Z,8.55
2023-04-28T20:38:06.541Z,9.70
2023-04-28T20:40:34.756Z,8.27
2023-04-28T20:43:03.792Z,8.50
2023-04-28T20:45:32.363Z,9.25
2023-04-28T20:48:02.472Z,8.88
2023-04-28T20:50:33.456Z,8.63
2023-04-28T20:53:03.380Z,8.68
2023-04-28T20:55:31.225Z,8.98
2023-04-28T20:57:58.792Z,10.43
2023-04-28T21:00:28.690Z,9.52
2023-04-28T21:02:56.619Z,9.27
2023-04-28T21:05:24.401Z,10.20
2023-04-28T21:07:54.633Z,9.63
2023-04-28T21:10:22.184Z,9.77
2023-04-28T21:12:54.231Z,9.20
2023-04-28T21:15:24.251Z,8.48
2023-04-28T21:17:52.022Z,8.63
2023-04-28T21:20:19.768Z,9.10
2023-04-28T21:22:47.646Z,8.93
2023-04-28T21:25:16.323Z,9.77
2023-04-28T21:27:44.646Z,10.90
2023-04-28T21:30:14.959Z,10.07
2023-04-28T21:32:42.609Z,10.20
2023-04-28T21:35:11.071Z,9.68
2023-04-28T21:37:38.744Z,10.38
2023-04-28T21:40:07.562Z,10.07
2023-04-28T21:42:35.563Z,10.40
2023-04-28T21:45:07.588Z,10.40
2023-04-28T21:47:35.070Z,10.52
2023-04-28T21:50:02.715Z,9.57
2023-04-28T21:52:30.531Z,10.80
2023-04-28T21:54:59.419Z,11.63
2023-04-28T21:57:27.208Z,10.38
2023-04-28T21:59:57.378Z,11.63
2023-04-28T22:02:25.262Z,10.75
2023-04-28T22:04:54.016Z,9.85
2023-04-28T22:07:21.644Z,10.60
2023-04-28T22:09:49.483Z,9.63
2023-04-28T22:12:17.320Z,11.18
2023-04-28T22:14:44.926Z,9.80
2023-04-28T22:17:12.496Z,11.27
2023-04-28T22:19:40.291Z,10.63
2023-04-28T22:22:10.393Z,9.18
2023-04-28T22:24:42.650Z,12.32
2023-04-28T22:27:10.421Z,9.52
2023-04-28T22:29:38.017Z,9.90
2023-04-28T22:32:09.929Z,10.40
2023-04-28T22:34:37.672Z,8.48
2023-04-28T22:37:05.734Z,9.30
2023-04-28T22:39:33.326Z,8.70
2023-04-28T22:42:00.891Z,8.95
2023-04-28T22:44:31.131Z,8.18
2023-04-28T22:46:58.932Z,9.77
2023-04-28T22:49:28.866Z,9.25
2023-04-28T22:51:57.135Z,9.40
2023-04-28T22:54:24.854Z,9.20
2023-04-28T22:56:53.372Z,9.27
2023-04-28T22:59:22.291Z,9.52
2023-04-28T23:01:54.770Z,9.35
2023-04-28T23:04:22.770Z,8.70
2023-04-28T23:06:53.159Z,9.05
2023-04-28T23:09:21.100Z,9.75
2023-04-28T23:11:51.070Z,10.48
2023-04-28T23:14:18.736Z,9.35
2023-04-28T23:16:49.055Z,10.20
2023-04-28T23:19:18.063Z,9.25
2023-04-28T23:21:50.103Z,10.25
2023-04-28T23:24:17.606Z,10.32
2023-04-28T23:26:45.520Z,11.40
2023-04-28T23:29:13.231Z,9.73
2023-04-28T23:31:43.543Z,10.32
2023-04-28T23:34:11.330Z,11.05
2023-04-28T23:36:41.180Z,10.88
2023-04-28T23:39:11.139Z,10.32
2023-04-28T23:41:42.250Z,9.82
2023-04-28T23:44:10.123Z,11.07
2023-04-28T23:46:37.848Z,11.48
2023-04-28T23:49:05.399Z,11.30
2023-04-28T23:51:33.125Z,10.60
2023-04-28T23:54:03.324Z,11.15
2023-04-28T23:56:31.907Z,10.98
2023-04-28T23:59:01.962Z,11.52
